createdAt,value
2023-04-22T00:00:14.071Z,100265.97
2023-04-22T00:00:36.395Z,100272.19
2023-04-22T00:00:59.746Z,100264.19
2023-04-22T00:01:21.705Z,100257.44
2023-04-22T00:01:43.428Z,100270.28
2023-04-22T00:02:05.160Z,100272.00
2023-04-22T00:02:29.441Z,100276.56
2023-04-22T00:02:51.321Z,100274.88
2023-04-22T00:03:14.249Z,100278.47
2023-04-22T00:03:36.183Z,100277.59
2023-04-22T00:03:59.239Z,100270.53
2023-04-22T00:04:21.569Z,100268.97
2023-04-22T00:04:43.585Z,100265.69
2023-04-22T00:05:06.800Z,100259.41
2023-04-22T00:05:29.473Z,100270.72
2023-04-22T00:05:51.289Z,100273.38
2023-04-22T00:06:13.085Z,100270.59
2023-04-22T00:06:36.112Z,100278.63
2023-04-22T00:06:58.811Z,100266.31
2023-04-22T00:07:20.490Z,100263.97
2023-04-22T00:07:43.343Z,100264.50
2023-04-22T00:08:05.102Z,100268.91
2023-04-22T00:08:27.658Z,100268.13
2023-04-22T00:08:49.249Z,100268.13
2023-04-22T00:09:11.040Z,100261.22
2023-04-22T00:09:32.704Z,100271.84
2023-04-22T00:09:55.295Z,100270.88
2023-04-22T00:10:16.960Z,100257.50
2023-04-22T00:10:38.642Z,100261.03
2023-04-22T00:11:01.196Z,100272.84
2023-04-22T00:11:22.873Z,100267.50
2023-04-22T00:11:44.500Z,100263.97
2023-04-22T00:12:06.686Z,100274.59
2023-04-22T00:12:28.268Z,100264.75
2023-04-22T00:12:50.944Z,100263.97
2023-04-22T00:13:12.517Z,100259.75
2023-04-22T00:13:34.285Z,100244.28
2023-04-22T00:13:55.928Z,100265.63
2023-04-22T00:14:18.813Z,100261.16
2023-04-22T00:14:40.435Z,100268.28
2023-04-22T00:15:02.431Z,100262.09
2023-04-22T00:15:25.363Z,100251.06
2023-04-22T00:15:48.039Z,100262.78
2023-04-22T00:16:09.777Z,100271.72
2023-04-22T00:16:31.473Z,100261.97
2023-04-22T00:16:53.245Z,100267.31
2023-04-22T00:17:15.880Z,100270.88
2023-04-22T00:17:37.607Z,100263.09
2023-04-22T00:17:59.816Z,100267.69
2023-04-22T00:18:21.835Z,100270.44
2023-04-22T00:18:44.441Z,100266.81
2023-04-22T00:19:06.165Z,100257.34
2023-04-22T00:19:28.313Z,100258.09
2023-04-22T00:19:49.947Z,100265.00
2023-04-22T00:20:13.013Z,100267.50
2023-04-22T00:20:36.397Z,100270.97
2023-04-22T00:20:58.012Z,100267.50
2023-04-22T00:21:19.718Z,100264.91
2023-04-22T00:21:42.714Z,100264.03
2023-04-22T00:22:05.656Z,100269.50
2023-04-22T00:22:27.660Z,100266.81
2023-04-22T00:22:49.361Z,100267.84
2023-04-22T00:23:11.668Z,100266.09
2023-04-22T00:23:34.436Z,100267.06
2023-04-22T00:23:56.107Z,100260.00
2023-04-22T00:24:17.779Z,100262.69
2023-04-22T00:24:39.478Z,100262.75
2023-04-22T00:25:01.169Z,100252.34
2023-04-22T00:25:23.764Z,100251.66
2023-04-22T00:25:45.391Z,100260.00
2023-04-22T00:26:07.057Z,100262.50
2023-04-22T00:26:28.730Z,100256.22
2023-04-22T00:26:51.321Z,100261.72
2023-04-22T00:27:13.067Z,100256.91
2023-04-22T00:27:34.779Z,100264.03
2023-04-22T00:27:56.405Z,100265.78
2023-04-22T00:28:19.008Z,100253.34
2023-04-22T00:29:20.072Z,100267.94
2023-04-22T00:29:41.790Z,100260.69
2023-04-22T00:30:04.817Z,100260.00
2023-04-22T00:30:26.444Z,100260.00
2023-04-22T00:30:48.097Z,100257.41
2023-04-22T00:31:09.750Z,100259.13
2023-04-22T00:31:31.787Z,100254.81
2023-04-22T00:31:54.583Z,100221.31
2023-04-22T00:32:16.279Z,100262.94
2023-04-22T00:32:38.358Z,100258.56
2023-04-22T00:33:00.189Z,100264.88
2023-04-22T00:33:22.789Z,100260.56
2023-04-22T00:33:44.372Z,100255.22
2023-04-22T00:34:05.980Z,100263.16
2023-04-22T00:34:27.569Z,100266.69
2023-04-22T00:34:49.680Z,100261.34
2023-04-22T00:35:12.340Z,100271.91
2023-04-22T00:35:34.632Z,100269.25
2023-04-22T00:35:56.272Z,100266.56
2023-04-22T00:36:17.911Z,100265.63
2023-04-22T00:36:39.588Z,100265.63
2023-04-22T00:37:03.667Z,100262.22
2023-04-22T00:37:25.700Z,100259.34
2023-04-22T00:37:47.374Z,100264.78
2023-04-22T00:38:09.092Z,100275.38
2023-04-22T00:38:31.774Z,100262.34
2023-04-22T00:38:53.515Z,100267.69
2023-04-22T00:39:15.402Z,100257.88
2023-04-22T00:39:39.357Z,100259.53
2023-04-22T00:40:01.409Z,100267.44
2023-04-22T00:40:24.005Z,100267.69
2023-04-22T00:40:46.329Z,100246.50
2023-04-22T00:41:08.438Z,100266.94
2023-04-22T00:41:31.170Z,100260.63
2023-04-22T00:41:54.643Z,100257.19
2023-04-22T00:42:16.947Z,100259.53
2023-04-22T00:42:39.573Z,100265.63
2023-04-22T00:43:02.771Z,100266.47
2023-04-22T00:43:25.503Z,100262.81
2023-04-22T00:43:47.170Z,100264.56
2023-04-22T00:44:10.177Z,100259.13
2023-04-22T00:44:32.663Z,100260.88
2023-04-22T00:44:54.478Z,100251.19
2023-04-22T00:45:18.202Z,100268.78
2023-04-22T00:45:40.043Z,100262.50
2023-04-22T00:46:01.711Z,100263.44
2023-04-22T00:46:24.290Z,100258.09
2023-04-22T00:46:47.201Z,100260.69
2023-04-22T00:47:09.283Z,100254.66
2023-04-22T00:47:32.294Z,100263.81
2023-04-22T00:47:54.158Z,100254.69
2023-04-22T00:48:16.812Z,100257.25
2023-04-22T00:48:38.880Z,100257.34
2023-04-22T00:49:01.207Z,100254.50
2023-04-22T00:49:25.245Z,100257.84
2023-04-22T00:49:50.298Z,100263.38
2023-04-22T00:50:12.023Z,100261.50
2023-04-22T00:50:33.674Z,100257.78
2023-04-22T00:50:55.265Z,100265.72
2023-04-22T00:51:16.911Z,100266.47
2023-04-22T00:51:39.472Z,100261.84
2023-04-22T00:52:02.488Z,100265.19
2023-04-22T00:52:24.173Z,100269.69
2023-04-22T00:52:45.920Z,100262.47
2023-04-22T00:53:07.568Z,100265.88
2023-04-22T00:53:29.270Z,100265.97
2023-04-22T00:53:51.882Z,100263.13
2023-04-22T00:54:13.553Z,100262.19
2023-04-22T00:54:35.760Z,100272.69
2023-04-22T00:54:57.649Z,100266.41
2023-04-22T00:55:19.551Z,100257.44
2023-04-22T00:55:42.280Z,100267.16
2023-04-22T00:56:04.397Z,100254.19
2023-04-22T00:56:27.964Z,100261.75
2023-04-22T00:56:49.757Z,100265.47
2023-04-22T00:57:12.005Z,100269.16
2023-04-22T00:57:36.611Z,100264.00
2023-04-22T00:58:00.624Z,100259.53
2023-04-22T00:58:25.819Z,100262.88
2023-04-22T00:58:47.495Z,100257.72
2023-04-22T00:59:10.980Z,100259.53
2023-04-22T00:59:33.350Z,100261.59
2023-04-22T00:59:55.555Z,100263.41
2023-04-22T01:00:20.032Z,100260.88
2023-04-22T01:00:41.894Z,100257.25
2023-04-22T01:01:05.098Z,100263.72
2023-04-22T01:01:26.975Z,100259.44
2023-04-22T01:01:49.158Z,100260.19
2023-04-22T01:02:11.511Z,100258.47
2023-04-22T01:02:34.611Z,100260.19
2023-04-22T01:02:57.567Z,100266.47
2023-04-22T01:03:20.790Z,100265.72
2023-04-22T01:03:43.101Z,100260.38
2023-04-22T01:04:06.597Z,100263.13
2023-04-22T01:04:28.583Z,100259.78
2023-04-22T01:04:50.363Z,100259.84
2023-04-22T01:05:12.068Z,100261.84
2023-04-22T01:05:34.588Z,100268.97
2023-04-22T01:05:57.663Z,100264.50
2023-04-22T01:06:19.983Z,100257.44
2023-04-22T01:06:43.937Z,100266.06
2023-04-22T01:07:06.921Z,100262.59
2023-04-22T01:07:29.799Z,100257.09
2023-04-22T01:07:51.382Z,100260.72
2023-04-22T01:08:13.044Z,100269.66
2023-04-22T01:08:34.800Z,100266.06
2023-04-22T01:08:56.478Z,100268.81
2023-04-22T01:09:20.097Z,100262.59
2023-04-22T01:09:41.960Z,100261.72
2023-04-22T01:10:04.725Z,100266.25
2023-04-22T01:10:26.417Z,100262.78
2023-04-22T01:10:48.979Z,100260.03
2023-04-22T01:11:10.701Z,100262.59
2023-04-22T01:11:33.280Z,100257.63
2023-04-22T01:11:56.245Z,100270.59
2023-04-22T01:12:26.718Z,100262.78
2023-04-22T01:12:55.930Z,100268.13
2023-04-22T01:13:42.487Z,100262.69
2023-04-22T01:14:05.890Z,100262.59
2023-04-22T01:14:28.811Z,100253.56
2023-04-22T01:14:50.502Z,100264.84
2023-04-22T01:15:12.635Z,100264.06
2023-04-22T01:15:35.564Z,100265.72
2023-04-22T01:15:57.834Z,100268.53
2023-04-22T01:16:20.393Z,100261.25
2023-04-22T01:16:43.744Z,100257.78
2023-04-22T01:17:06.679Z,100253.91
2023-04-22T01:17:31.870Z,100258.38
2023-04-22T01:17:54.968Z,100255.53
2023-04-22T01:18:16.851Z,100256.41
2023-04-22T01:18:38.797Z,100259.06
2023-04-22T01:19:01.894Z,100257.19
2023-04-22T01:19:23.842Z,100251.06
2023-04-22T01:19:46.186Z,100264.25
2023-04-22T01:20:10.345Z,100252.59
2023-04-22T01:20:33.050Z,100258.06
2023-04-22T01:20:54.738Z,100255.28
2023-04-22T01:21:16.998Z,100249.84
2023-04-22T01:21:40.726Z,100254.31
2023-04-22T01:22:04.421Z,100255.38
2023-04-22T01:22:33.453Z,100254.31
2023-04-22T01:22:56.411Z,100256.25
2023-04-22T01:23:21.404Z,100257.19
2023-04-22T01:23:44.148Z,100259.66
2023-04-22T01:24:06.669Z,100265.88
2023-04-22T01:24:28.424Z,100259.78
2023-04-22T01:24:50.507Z,100259.84
2023-04-22T01:25:13.432Z,100258.13
2023-04-22T01:25:35.130Z,100259.00
2023-04-22T01:25:57.561Z,100258.13
2023-04-22T01:26:19.241Z,100257.44
2023-04-22T01:26:42.116Z,100256.50
2023-04-22T01:27:03.856Z,100261.94
2023-04-22T01:27:25.842Z,100256.91
2023-04-22T01:27:47.644Z,100248.97
2023-04-22T01:28:09.652Z,100261.31
2023-04-22T01:28:32.904Z,100252.09
2023-04-22T01:28:54.619Z,100257.09
2023-04-22T01:29:16.428Z,100265.00
2023-04-22T01:29:38.957Z,100259.50
2023-04-22T01:30:00.872Z,100259.59
2023-04-22T01:30:23.506Z,100252.63
2023-04-22T01:30:45.373Z,100259.66
2023-04-22T01:31:07.100Z,100263.13
2023-04-22T01:31:29.376Z,100264.84
2023-04-22T01:31:53.903Z,100266.84
2023-04-22T01:32:15.622Z,100255.19
2023-04-22T01:32:38.902Z,100267.59
2023-04-22T01:33:00.852Z,100268.38
2023-04-22T01:33:23.548Z,100263.97
2023-04-22T01:33:45.820Z,100264.84
2023-04-22T01:34:09.399Z,100267.50
2023-04-22T01:34:31.962Z,100266.63
2023-04-22T01:34:54.559Z,100263.91
2023-04-22T01:35:16.269Z,100271.91
2023-04-22T01:35:38.242Z,100270.38
2023-04-22T01:36:00.022Z,100261.38
2023-04-22T01:36:21.863Z,100265.00
2023-04-22T01:36:45.422Z,100268.63
2023-04-22T01:37:07.286Z,100262.34
2023-04-22T01:37:29.495Z,100266.72
2023-04-22T01:37:51.072Z,100241.69
2023-04-22T01:38:13.325Z,100263.28
2023-04-22T01:38:37.280Z,100263.63
2023-04-22T01:38:59.732Z,100265.41
2023-04-22T01:39:21.858Z,100262.75
2023-04-22T01:39:43.749Z,100264.47
2023-04-22T01:40:09.162Z,100267.22
2023-04-22T01:40:31.849Z,100262.81
2023-04-22T01:40:53.804Z,100262.03
2023-04-22T01:41:16.790Z,100264.16
2023-04-22T01:41:38.594Z,100265.81
2023-04-22T01:42:02.090Z,100263.03
2023-04-22T01:42:24.534Z,100268.28
2023-04-22T01:42:47.363Z,100271.81
2023-04-22T01:43:11.040Z,100263.78
2023-04-22T01:43:34.017Z,100269.25
2023-04-22T01:43:58.455Z,100266.50
2023-04-22T01:44:20.192Z,100260.16
2023-04-22T01:44:42.956Z,100267.44
2023-04-22T01:45:05.618Z,100266.50
2023-04-22T01:45:28.022Z,100255.91
2023-04-22T01:45:50.694Z,100261.22
2023-04-22T01:46:12.393Z,100264.78
2023-04-22T01:46:34.261Z,100263.84
2023-04-22T01:46:56.010Z,100250.13
2023-04-22T01:47:17.716Z,100259.53
2023-04-22T01:47:40.342Z,100266.56
2023-04-22T01:48:02.209Z,100260.47
2023-04-22T01:48:23.909Z,100255.28
2023-04-22T01:48:50.393Z,100257.69
2023-04-22T01:49:13.076Z,100259.44
2023-04-22T01:49:34.729Z,100262.22
2023-04-22T01:49:56.313Z,100254.41
2023-04-22T01:50:18.035Z,100262.22
2023-04-22T01:50:41.544Z,100261.34
2023-04-22T01:51:03.456Z,100263.84
2023-04-22T01:51:25.221Z,100258.66
2023-04-22T01:51:46.826Z,100250.13
2023-04-22T01:52:08.411Z,100257.94
2023-04-22T01:52:31.884Z,100258.13
2023-04-22T01:52:53.611Z,100256.31
2023-04-22T01:53:16.924Z,100257.34
2023-04-22T01:53:41.003Z,100253.03
2023-04-22T01:54:04.130Z,100258.38
2023-04-22T01:54:25.928Z,100257.34
2023-04-22T01:54:48.675Z,100255.63
2023-04-22T01:55:10.780Z,100262.59
2023-04-22T01:55:36.063Z,100249.19
2023-04-22T01:55:57.739Z,100252.34
2023-04-22T01:56:19.539Z,100254.91
2023-04-22T01:56:43.924Z,100256.66
2023-04-22T01:57:10.572Z,100253.91
2023-04-22T01:57:32.375Z,100257.75
2023-04-22T01:57:55.165Z,100250.75
2023-04-22T01:58:16.828Z,100262.75
2023-04-22T01:58:39.394Z,100249.31
2023-04-22T01:59:02.081Z,100254.56
2023-04-22T01:59:27.524Z,100252.69
2023-04-22T01:59:49.173Z,100249.06
2023-04-22T02:00:12.419Z,100251.56
2023-04-22T02:00:43.523Z,100255.03
2023-04-22T02:01:06.399Z,100255.97
2023-04-22T02:01:28.125Z,100256.91
2023-04-22T02:01:50.476Z,100255.16
2023-04-22T02:02:13.224Z,100250.88
2023-04-22T02:02:36.254Z,100261.44
2023-04-22T02:02:58.000Z,100253.63
2023-04-22T02:03:20.234Z,100247.03
2023-04-22T02:03:43.116Z,100254.72
2023-04-22T02:04:08.027Z,100251.13
2023-04-22T02:04:29.856Z,100263.44
2023-04-22T02:04:51.676Z,100258.16
2023-04-22T02:05:13.534Z,100258.16
2023-04-22T02:05:35.393Z,100248.34
2023-04-22T02:05:57.987Z,100254.66
2023-04-22T02:06:19.583Z,100248.34
2023-04-22T02:06:41.345Z,100246.53
2023-04-22T02:07:03.921Z,100244.81
2023-04-22T02:07:27.050Z,100256.28
2023-04-22T02:07:51.954Z,100256.28
2023-04-22T02:08:13.542Z,100258.94
2023-04-22T02:08:35.169Z,100253.63
2023-04-22T02:08:59.121Z,100258.94
2023-04-22T02:09:20.752Z,100250.94
2023-04-22T02:09:42.572Z,100255.59
2023-04-22T02:10:05.501Z,100256.47
2023-04-22T02:10:28.185Z,100252.13
2023-04-22T02:10:49.789Z,100256.53
2023-04-22T02:11:11.434Z,100247.84
2023-04-22T02:11:33.152Z,100249.38
2023-04-22T02:11:55.755Z,100248.78
2023-04-22T02:12:17.329Z,100252.06
2023-04-22T02:12:39.016Z,100252.00
2023-04-22T02:13:00.680Z,100248.59
2023-04-22T02:13:22.387Z,100251.25
2023-04-22T02:13:45.969Z,100249.38
2023-04-22T02:14:08.498Z,100240.44
2023-04-22T02:14:30.391Z,100249.31
2023-04-22T02:14:57.390Z,100248.44
2023-04-22T02:15:22.708Z,100247.59
2023-04-22T02:15:45.926Z,100235.09
2023-04-22T02:16:08.189Z,100242.06
2023-04-22T02:16:30.037Z,100237.59
2023-04-22T02:16:52.789Z,100241.94
2023-04-22T02:17:14.410Z,100244.41
2023-04-22T02:17:36.144Z,100239.16
2023-04-22T02:17:57.789Z,100240.94
2023-04-22T02:18:19.560Z,100236.81
2023-04-22T02:18:42.127Z,100239.00
2023-04-22T02:19:03.912Z,100241.50
2023-04-22T02:19:26.181Z,100230.38
2023-04-22T02:19:47.863Z,100241.31
2023-04-22T02:20:12.005Z,100230.56
2023-04-22T02:20:33.743Z,100233.16
2023-04-22T02:20:55.437Z,100236.59
2023-04-22T02:21:16.990Z,100232.22
2023-04-22T02:21:41.227Z,100237.44
2023-04-22T02:22:02.954Z,100231.84
2023-04-22T02:22:24.816Z,100238.06
2023-04-22T02:22:46.558Z,100235.31
2023-04-22T02:23:09.218Z,100231.84
2023-04-22T02:23:31.121Z,100201.78
2023-04-22T02:23:52.755Z,100228.44
2023-04-22T02:24:16.463Z,100230.16
2023-04-22T02:24:38.244Z,100226.44
2023-04-22T02:25:01.292Z,100229.06
2023-04-22T02:25:22.911Z,100232.72
2023-04-22T02:25:49.412Z,100223.72
2023-04-22T02:26:11.435Z,100224.59
2023-04-22T02:26:33.051Z,100221.97
2023-04-22T02:26:56.491Z,100222.91
2023-04-22T02:27:18.135Z,100221.06
2023-04-22T02:27:42.465Z,100222.91
2023-04-22T02:28:04.260Z,100203.78
2023-04-22T02:28:27.313Z,100212.03
2023-04-22T02:28:48.985Z,100218.44
2023-04-22T02:29:10.741Z,100217.53
2023-04-22T02:29:32.384Z,100224.72
2023-04-22T02:29:55.025Z,100226.50
2023-04-22T02:30:16.690Z,100228.44
2023-04-22T02:30:38.282Z,100217.75
2023-04-22T02:31:00.075Z,100231.84
2023-04-22T02:31:21.730Z,100227.38
2023-04-22T02:31:44.542Z,100228.97
2023-04-22T02:32:07.074Z,100232.59
2023-04-22T02:32:28.681Z,100231.63
2023-04-22T02:32:50.366Z,100233.44
2023-04-22T02:33:13.104Z,100228.88
2023-04-22T02:33:34.730Z,100225.56
2023-04-22T02:33:56.406Z,100226.22
2023-04-22T02:34:18.199Z,100228.09
2023-04-22T02:34:42.585Z,100224.09
2023-04-22T02:35:05.295Z,100238.00
2023-04-22T02:35:26.929Z,100237.19
2023-04-22T02:35:48.521Z,100230.31
2023-04-22T02:36:13.294Z,100212.38
2023-04-22T02:36:35.945Z,100234.78
2023-04-22T02:36:57.682Z,100235.66
2023-04-22T02:37:19.367Z,100222.56
2023-04-22T02:37:40.992Z,100240.06
2023-04-22T02:38:02.610Z,100208.84
2023-04-22T02:38:25.220Z,100229.44
2023-04-22T02:38:46.862Z,100212.56
2023-04-22T02:39:09.995Z,100235.56
2023-04-22T02:39:33.242Z,100237.38
2023-04-22T02:39:56.136Z,100240.72
2023-04-22T02:40:17.700Z,100228.44
2023-04-22T02:40:40.331Z,100236.91
2023-04-22T02:41:01.970Z,100226.28
2023-04-22T02:41:24.516Z,100235.78
2023-04-22T02:41:47.211Z,100238.44
2023-04-22T02:42:09.399Z,100237.50
2023-04-22T02:42:31.067Z,100235.78
2023-04-22T02:42:52.662Z,100236.66
2023-04-22T02:43:14.320Z,100234.06
2023-04-22T02:43:36.920Z,100234.84
2023-04-22T02:43:58.558Z,100238.44
2023-04-22T02:44:21.720Z,100241.13
2023-04-22T02:44:43.408Z,100228.25
2023-04-22T02:45:07.175Z,100226.28
2023-04-22T02:45:28.833Z,100249.13
2023-04-22T02:45:50.706Z,100244.84
2023-04-22T02:46:13.118Z,100243.91
2023-04-22T02:46:36.619Z,100240.19
2023-04-22T02:46:58.500Z,100239.31
2023-04-22T02:47:20.522Z,100243.78
2023-04-22T02:47:43.710Z,100231.56
2023-04-22T02:48:05.581Z,100238.56
2023-04-22T02:48:27.196Z,100242.06
2023-04-22T02:48:49.837Z,100241.13
2023-04-22T02:49:11.459Z,100240.19
2023-04-22T02:49:33.136Z,100238.31
2023-04-22T02:49:54.812Z,100237.44
2023-04-22T02:50:16.587Z,100245.53
2023-04-22T02:50:39.326Z,100243.91
2023-04-22T02:51:00.908Z,100235.97
2023-04-22T02:51:22.878Z,100235.78
2023-04-22T02:51:44.728Z,100233.09
2023-04-22T02:52:07.284Z,100229.50
2023-04-22T02:52:28.947Z,100234.84
2023-04-22T02:52:51.302Z,100233.03
2023-04-22T02:53:12.915Z,100234.84
2023-04-22T02:53:36.201Z,100228.63
2023-04-22T02:53:57.795Z,100232.09
2023-04-22T02:54:19.430Z,100234.44
2023-04-22T02:54:42.504Z,100221.06
2023-04-22T02:55:05.050Z,100233.38
2023-04-22T02:55:28.278Z,100227.09
2023-04-22T02:55:49.924Z,100228.81
2023-04-22T02:56:11.495Z,100226.16
2023-04-22T02:56:33.082Z,100230.38
2023-04-22T02:56:54.759Z,100232.97
2023-04-22T02:57:17.395Z,100225.69
2023-04-22T02:57:39.020Z,100229.31
2023-04-22T02:58:00.666Z,100224.84
2023-04-22T02:58:22.422Z,100231.03
2023-04-22T02:58:45.109Z,100228.28
2023-04-22T02:59:06.776Z,100227.34
2023-04-22T02:59:28.438Z,100231.84
2023-04-22T02:59:50.482Z,100225.56
2023-04-22T03:00:14.870Z,100222.78
2023-04-22T03:00:36.504Z,100222.78
2023-04-22T03:00:59.145Z,100220.22
2023-04-22T03:01:20.860Z,100227.25
2023-04-22T03:01:42.610Z,100221.84
2023-04-22T03:02:10.603Z,100216.56
2023-04-22T03:02:45.908Z,100221.84
2023-04-22T03:03:09.686Z,100223.75
2023-04-22T03:03:31.965Z,100225.56
2023-04-22T03:03:54.029Z,100220.09
2023-04-22T03:04:21.988Z,100221.16
2023-04-22T03:04:43.880Z,100222.78
2023-04-22T03:05:06.510Z,100229.09
2023-04-22T03:05:29.110Z,100220.09
2023-04-22T03:05:50.778Z,100202.72
2023-04-22T03:06:13.428Z,100228.03
2023-04-22T03:06:35.050Z,100222.69
2023-04-22T03:06:57.455Z,100212.94
2023-04-22T03:07:19.175Z,100216.66
2023-04-22T03:07:40.844Z,100221.84
2023-04-22T03:08:03.510Z,100220.91
2023-04-22T03:08:25.669Z,100213.81
2023-04-22T03:08:47.307Z,100214.06
2023-04-22T03:09:08.936Z,100213.81
2023-04-22T03:09:31.553Z,100217.34
2023-04-22T03:09:55.893Z,100208.47
2023-04-22T03:10:18.277Z,100207.59
2023-04-22T03:10:39.919Z,100220.97
2023-04-22T03:11:01.986Z,100207.59
2023-04-22T03:11:24.562Z,100212.94
2023-04-22T03:11:46.221Z,100214.88
2023-04-22T03:12:07.989Z,100210.38
2023-04-22T03:12:31.081Z,100206.66
2023-04-22T03:12:52.733Z,100210.28
2023-04-22T03:13:16.617Z,100209.41
2023-04-22T03:13:39.127Z,100213.91
2023-04-22T03:14:00.928Z,100214.00
2023-04-22T03:14:22.603Z,100203.31
2023-04-22T03:14:45.482Z,100214.25
2023-04-22T03:15:08.222Z,100203.56
2023-04-22T03:15:30.599Z,100205.25
2023-04-22T03:15:52.215Z,100203.34
2023-04-22T03:16:15.371Z,100202.34
2023-04-22T03:16:37.342Z,100210.41
2023-04-22T03:17:00.452Z,100210.38
2023-04-22T03:17:22.397Z,100193.53
2023-04-22T03:17:46.080Z,100198.81
2023-04-22T03:18:09.494Z,100196.16
2023-04-22T03:18:31.366Z,100201.50
2023-04-22T03:18:53.007Z,100200.44
2023-04-22T03:19:16.641Z,100200.44
2023-04-22T03:19:39.705Z,100199.50
2023-04-22T03:20:01.684Z,100191.69
2023-04-22T03:20:24.263Z,100194.25
2023-04-22T03:20:45.950Z,100202.00
2023-04-22T03:21:09.001Z,100196.75
2023-04-22T03:21:32.257Z,100202.84
2023-04-22T03:21:54.089Z,100200.28
2023-04-22T03:22:15.952Z,100201.06
2023-04-22T03:22:37.677Z,100198.72
2023-04-22T03:23:01.776Z,100204.84
2023-04-22T03:23:23.389Z,100200.44
2023-04-22T03:23:45.389Z,100200.44
2023-04-22T03:24:07.303Z,100197.94
2023-04-22T03:24:31.064Z,100199.69
2023-04-22T03:24:58.706Z,100204.06
2023-04-22T03:25:22.736Z,100196.16
2023-04-22T03:25:48.839Z,100208.47
2023-04-22T03:26:10.479Z,100186.44
2023-04-22T03:26:33.212Z,100202.97
2023-04-22T03:26:55.235Z,100202.97
2023-04-22T03:27:16.900Z,100204.78
2023-04-22T03:27:39.462Z,100202.09
2023-04-22T03:28:01.099Z,100196.16
2023-04-22T03:28:22.909Z,100206.41
2023-04-22T03:28:45.886Z,100207.69
2023-04-22T03:29:08.496Z,100200.44
2023-04-22T03:29:30.124Z,100198.56
2023-04-22T03:29:51.712Z,100202.09
2023-04-22T03:30:13.538Z,100194.47
2023-04-22T03:30:36.155Z,100202.19
2023-04-22T03:30:58.000Z,100208.59
2023-04-22T03:31:19.691Z,100208.59
2023-04-22T03:31:42.822Z,100201.53
2023-04-22T03:32:04.546Z,100199.81
2023-04-22T03:32:27.258Z,100194.34
2023-04-22T03:33:11.421Z,100201.31
2023-04-22T03:33:47.206Z,100200.28
2023-04-22T03:34:17.792Z,100197.63
2023-04-22T03:34:40.644Z,100204.66
2023-04-22T03:35:05.578Z,100200.19
2023-04-22T03:35:27.252Z,100204.50
2023-04-22T03:35:51.312Z,100207.19
2023-04-22T03:36:14.002Z,100162.19
2023-04-22T03:36:35.664Z,100195.56
2023-04-22T03:36:57.252Z,100202.59
2023-04-22T03:37:20.052Z,100198.38
2023-04-22T03:37:42.684Z,100186.56
2023-04-22T03:38:07.782Z,100204.22
2023-04-22T03:38:31.835Z,100199.72
2023-04-22T03:38:54.489Z,100200.44
2023-04-22T03:39:19.130Z,100206.59
2023-04-22T03:39:41.561Z,100197.69
2023-04-22T03:40:07.411Z,100195.03
2023-04-22T03:40:30.237Z,100198.50
2023-04-22T03:40:51.982Z,100198.56
2023-04-22T03:41:23.490Z,100197.44
2023-04-22T03:41:45.133Z,100202.78
2023-04-22T03:42:08.132Z,100200.03
2023-04-22T03:42:33.915Z,100188.81
2023-04-22T03:42:55.961Z,100200.91
2023-04-22T03:43:17.786Z,100198.22
2023-04-22T03:43:48.345Z,100201.25
2023-04-22T03:44:10.498Z,100200.38
2023-04-22T03:44:33.222Z,100193.97
2023-04-22T03:44:57.013Z,100200.19
2023-04-22T03:45:22.044Z,100192.19
2023-04-22T03:45:56.130Z,100198.03
2023-04-22T03:46:20.981Z,100200.72
2023-04-22T03:46:53.785Z,100198.03
2023-04-22T03:47:20.190Z,100200.53
2023-04-22T03:47:47.327Z,100199.16
2023-04-22T03:48:20.243Z,100197.25
2023-04-22T03:48:44.508Z,100196.25
2023-04-22T03:49:15.836Z,100200.66
2023-04-22T03:49:38.935Z,100193.56
2023-04-22T03:50:01.146Z,100197.19
2023-04-22T03:50:26.813Z,100199.84
2023-04-22T03:50:50.653Z,100198.03
2023-04-22T03:51:12.478Z,100203.56
2023-04-22T03:51:35.721Z,100200.19
2023-04-22T03:52:02.460Z,100196.56
2023-04-22T03:52:25.020Z,100198.66
2023-04-22T03:52:52.965Z,100200.28
2023-04-22T03:53:16.324Z,100200.28
2023-04-22T03:53:38.748Z,100192.19
2023-04-22T03:54:02.606Z,100199.25
2023-04-22T03:54:27.354Z,100187.97
2023-04-22T03:54:50.413Z,100193.97
2023-04-22T03:55:13.836Z,100199.16
2023-04-22T03:55:36.602Z,100193.81
2023-04-22T03:55:58.238Z,100196.56
2023-04-22T03:56:20.417Z,100187.63
2023-04-22T03:56:43.573Z,100191.09
2023-04-22T03:57:06.424Z,100188.41
2023-04-22T03:57:28.175Z,100187.09
2023-04-22T03:57:50.414Z,100189.50
2023-04-22T03:58:12.094Z,100189.25
2023-04-22T03:58:33.770Z,100192.03
2023-04-22T03:59:00.516Z,100196.25
2023-04-22T03:59:22.165Z,100179.41
2023-04-22T03:59:44.313Z,100178.56
2023-04-22T04:00:08.382Z,100177.63
2023-04-22T04:00:36.755Z,100181.84
2023-04-22T04:01:04.376Z,100174.00
2023-04-22T04:01:26.321Z,100176.75
2023-04-22T04:01:52.821Z,100177.47
2023-04-22T04:02:17.982Z,100180.28
2023-04-22T04:02:40.537Z,100167.97
2023-04-22T04:03:04.782Z,100175.81
2023-04-22T04:03:30.247Z,100173.94
2023-04-22T04:03:53.196Z,100173.75
2023-04-22T04:04:16.336Z,100170.22
2023-04-22T04:04:57.482Z,100168.41
2023-04-22T04:05:19.956Z,100169.50
2023-04-22T04:05:42.319Z,100170.13
2023-04-22T04:06:05.025Z,100163.84
2023-04-22T04:06:28.082Z,100160.03
2023-04-22T04:06:49.653Z,100168.75
2023-04-22T04:07:11.289Z,100172.47
2023-04-22T04:07:32.976Z,100162.53
2023-04-22T04:07:56.509Z,100165.06
2023-04-22T04:08:19.260Z,100171.25
2023-04-22T04:08:40.941Z,100160.03
2023-04-22T04:09:03.755Z,100159.09
2023-04-22T04:09:26.723Z,100160.38
2023-04-22T04:09:48.563Z,100169.78
2023-04-22T04:10:11.540Z,100165.38
2023-04-22T04:10:34.655Z,100166.94
2023-04-22T04:10:57.476Z,100153.84
2023-04-22T04:11:20.833Z,100165.53
2023-04-22T04:11:42.983Z,100159.44
2023-04-22T04:12:05.813Z,100166.31
2023-04-22T04:12:32.446Z,100172.34
2023-04-22T04:12:55.904Z,100168.81
2023-04-22T04:13:18.891Z,100170.53
2023-04-22T04:13:57.985Z,100159.38
2023-04-22T04:14:24.944Z,100168.66
2023-04-22T04:14:47.282Z,100176.59
2023-04-22T04:15:12.558Z,100165.13
2023-04-22T04:15:36.433Z,100168.59
2023-04-22T04:16:00.168Z,100171.94
2023-04-22T04:16:23.778Z,100172.69
2023-04-22T04:16:51.463Z,100173.66
2023-04-22T04:17:21.667Z,100170.88
2023-04-22T04:17:43.553Z,100170.72
2023-04-22T04:18:05.345Z,100167.06
2023-04-22T04:18:29.514Z,100170.88
2023-04-22T04:18:51.820Z,100171.59
2023-04-22T04:19:16.627Z,100172.41
2023-04-22T04:19:38.614Z,100171.59
2023-04-22T04:20:00.477Z,100170.38
2023-04-22T04:20:22.338Z,100172.94
2023-04-22T04:20:45.892Z,100174.59
2023-04-22T04:21:07.827Z,100163.84
2023-04-22T04:21:34.264Z,100174.59
2023-04-22T04:21:56.972Z,100174.53